Time;durP1;ratioP1;P1;durP2;ratioP2;P2;SDS_P1;SDS_P2;PMS_P1;PMS_P2;Temp;Humidity;BMP_temperature;BMP_pressure;BME280_temperature;BME280_humidity;BME280_pressure;Samples;Min_cycle;Max_cycle;Signal;HPM_P1;HPM_P2
2022/12/14 00:01:55;;;;;;;61.20;34.15;;;-4.30;99.90;;;;;;6157969;23;20012;-86
2022/12/14 00:04:21;;;;;;;72.65;39.80;;;-4.60;99.90;;;;;;6181402;23;20040;-87
2022/12/14 00:06:47;;;;;;;72.90;38.92;;;-4.10;99.90;;;;;;6183749;23;20009;-86
2022/12/14 00:09:12;;;;;;;68.32;39.72;;;-4.80;99.90;;;;;;6182549;23;20048;-86
2022/12/14 00:11:38;;;;;;;62.70;35.78;;;-4.00;99.90;;;;;;6182880;23;20078;-86
2022/12/14 00:14:05;;;;;;;66.28;37.70;;;-4.10;99.90;;;;;;6181874;23;20104;-86
2022/12/14 00:16:32;;;;;;;63.72;36.30;;;-4.20;99.90;;;;;;6159041;23;20027;-87
2022/12/14 00:19:00;;;;;;;63.80;35.28;;;-5.00;99.90;;;;;;6157275;23;20536;-86
2022/12/14 00:21:26;;;;;;;62.17;34.33;;;-4.70;99.90;;;;;;6157772;23;20021;-87
2022/12/14 00:23:53;;;;;;;62.83;33.88;;;-4.80;99.90;;;;;;6183130;23;20051;-86
2022/12/14 00:26:21;;;;;;;59.60;34.70;;;-3.90;99.90;;;;;;6156920;23;20099;-86
2022/12/14 00:28:50;;;;;;;57.40;31.67;;;-5.30;99.90;;;;;;6183038;23;20027;-86
2022/12/14 00:31:15;;;;;;;55.67;30.80;;;-5.20;99.90;;;;;;6157237;23;20035;-85
2022/12/14 00:33:41;;;;;;;57.00;32.30;;;-4.00;99.90;;;;;;6183255;23;20441;-85
2022/12/14 00:36:09;;;;;;;55.05;30.73;;;-5.70;99.90;;;;;;6156821;23;20475;-86
2022/12/14 00:38:35;;;;;;;54.55;31.52;;;-5.70;99.90;;;;;;6158150;23;20024;-86
2022/12/14 00:41:01;;;;;;;57.28;32.00;;;-5.80;99.90;;;;;;6182552;23;20021;-86
2022/12/14 00:43:27;;;;;;;61.03;33.30;;;-4.70;99.90;;;;;;6182499;23;20024;-86
2022/12/14 00:45:53;;;;;;;60.63;33.47;;;-4.90;99.90;;;;;;6181174;23;20021;-86
2022/12/14 00:48:20;;;;;;;65.10;34.63;;;-4.50;99.90;;;;;;6182065;23;20017;-86
2022/12/14 00:50:47;;;;;;;64.40;35.72;;;-4.50;99.90;;;;;;6182009;23;20020;-87
2022/12/14 00:53:13;;;;;;;65.65;35.13;;;-5.80;99.90;;;;;;6156780;23;20052;-86
2022/12/14 00:55:41;;;;;;;73.20;36.38;;;-5.30;99.90;;;;;;6183159;23;20017;-86
2022/12/14 00:58:07;;;;;;;66.32;35.70;;;-4.70;99.90;;;;;;6157778;23;20091;-86
2022/12/14 01:00:33;;;;;;;64.63;34.00;;;-5.10;99.90;;;;;;6181132;23;20357;-85
2022/12/14 01:02:59;;;;;;;69.82;37.53;;;-3.30;99.90;;;;;;6158109;23;20380;-86
2022/12/14 01:05:25;;;;;;;59.80;34.05;;;-6.00;99.90;;;;;;6181517;23;20062;-86
2022/12/14 01:07:50;;;;;;;65.35;35.90;;;-6.00;99.90;;;;;;6181909;23;20040;-86
2022/12/14 01:10:16;;;;;;;68.30;37.35;;;-5.50;99.90;;;;;;6182842;23;20630;-86
2022/12/14 01:12:42;;;;;;;64.93;36.05;;;-5.90;99.90;;;;;;6182381;23;20013;-85
2022/12/14 01:15:09;;;;;;;66.07;36.45;;;-5.70;99.90;;;;;;6157455;23;20171;-85
2022/12/14 01:17:35;;;;;;;72.13;36.78;;;-5.90;99.90;;;;;;6182760;23;20017;-85
2022/12/14 01:20:00;;;;;;;69.80;37.08;;;-4.60;99.90;;;;;;6182037;23;20128;-86
2022/12/14 01:22:26;;;;;;;68.15;37.17;;;-5.50;99.90;;;;;;6182762;23;20070;-86
2022/12/14 01:24:52;;;;;;;67.15;35.50;;;-5.50;99.90;;;;;;6157469;23;20322;-85
2022/12/14 01:27:18;;;;;;;69.18;35.38;;;-5.60;99.90;;;;;;6158460;23;20067;-87
2022/12/14 01:29:43;;;;;;;73.18;37.78;;;-5.90;99.90;;;;;;6181361;23;20090;-86
2022/12/14 01:32:09;;;;;;;64.65;36.33;;;-5.50;99.90;;;;;;6182973;23;20013;-86
2022/12/14 01:34:35;;;;;;;67.60;37.50;;;-5.80;99.90;;;;;;6181252;23;20503;-85
2022/12/14 01:37:01;;;;;;;68.57;38.13;;;-3.60;99.90;;;;;;6157298;23;20017;-86
2022/12/14 01:39:26;;;;;;;79.00;38.47;;;-5.30;99.90;;;;;;6157827;23;20449;-86
2022/12/14 01:41:52;;;;;;;70.35;36.28;;;-6.30;99.90;;;;;;6181657;23;20494;-86
2022/12/14 01:44:18;;;;;;;70.93;36.60;;;-6.30;99.90;;;;;;6182467;23;20020;-86
2022/12/14 01:46:52;;;;;;;74.25;37.90;;;-4.70;99.90;;;;;;6182212;23;20476;-86
2022/12/14 01:49:28;;;;;;;64.97;34.33;;;-6.20;99.90;;;;;;6194003;23;20055;-86
2022/12/14 01:51:59;;;;;;;65.47;36.22;;;-6.40;99.90;;;;;;6212155;23;20023;-85
2022/12/14 01:54:26;;;;;;;63.03;35.08;;;-6.50;99.90;;;;;;6212423;23;20440;-85
2022/12/14 01:56:53;;;;;;;62.85;35.20;;;-5.90;99.90;;;;;;6187214;23;20024;-85
2022/12/14 01:59:26;;;;;;;65.25;35.95;;;-6.60;99.90;;;;;;6187524;23;20019;-85
2022/12/14 02:01:52;;;;;;;68.03;34.13;;;-5.70;99.90;;;;;;6187541;23;20074;-86
2022/12/14 02:04:19;;;;;;;59.97;35.47;;;-5.60;99.90;;;;;;6210745;23;20016;-84
2022/12/14 02:06:48;;;;;;;68.22;36.90;;;-6.70;99.90;;;;;;6187149;23;20016;-85
2022/12/14 02:09:19;;;;;;;69.05;37.35;;;-6.90;99.90;;;;;;6207728;23;20024;-85
2022/12/14 02:11:56;;;;;;;64.22;37.53;;;-6.50;99.90;;;;;;6210426;23;20028;-85
2022/12/14 02:14:23;;;;;;;72.10;38.65;;;-6.80;99.90;;;;;;6187452;23;20024;-86
2022/12/14 02:16:51;;;;;;;62.83;34.72;;;-5.70;99.90;;;;;;6211218;23;20015;-85
2022/12/14 02:19:17;;;;;;;63.60;35.72;;;-6.80;99.90;;;;;;6212029;23;20020;-86
2022/12/14 02:22:05;;;;;;;64.05;37.60;;;-6.80;99.90;;;;;;6212620;23;20081;-85
2022/12/14 02:24:50;;;;;;;67.55;36.35;;;-6.90;99.90;;;;;;6210913;23;20012;-85
2022/12/14 02:27:51;;;;;;;61.97;37.25;;;-6.80;99.90;;;;;;6212277;23;20020;-85
2022/12/14 02:30:20;;;;;;;69.53;38.20;;;-6.90;99.90;;;;;;6212181;23;20542;-85
2022/12/14 02:33:08;;;;;;;62.40;35.80;;;-6.00;99.90;;;;;;6210975;23;20017;-86
2022/12/14 02:35:49;;;;;;;67.68;38.47;;;-6.90;99.90;;;;;;6212209;23;20099;-85
2022/12/14 02:38:49;;;;;;;56.00;33.33;;;-6.90;99.90;;;;;;6210926;23;20012;-85
2022/12/14 02:41:37;;;;;;;59.67;33.83;;;-6.90;99.90;;;;;;6187325;23;20107;-85
2022/12/14 02:44:22;;;;;;;58.85;34.50;;;-7.00;99.90;;;;;;6212952;23;20016;-85
2022/12/14 02:47:08;;;;;;;65.10;36.95;;;-7.10;99.90;;;;;;6187173;23;20527;-85
2022/12/14 02:49:46;;;;;;;67.13;37.95;;;-7.20;99.90;;;;;;6188640;23;20028;-85
2022/12/14 02:52:43;;;;;;;68.65;38.30;;;-7.20;99.90;;;;;;6212685;23;20107;-85
2022/12/14 02:55:17;;;;;;;59.17;35.55;;;-7.20;99.90;;;;;;6187829;23;20051;-84
2022/12/14 02:57:51;;;;;;;65.18;36.85;;;-7.40;99.90;;;;;;6214277;23;20012;-85
2022/12/14 03:00:18;;;;;;;64.40;35.63;;;-7.10;99.90;;;;;;6212313;23;20024;-84
2022/12/14 03:02:46;;;;;;;59.30;36.17;;;-6.10;99.90;;;;;;6213985;23;20012;-85
2022/12/14 03:05:11;;;;;;;60.88;35.75;;;-7.40;99.90;;;;;;6213068;23;20335;-85
2022/12/14 03:07:46;;;;;;;67.70;36.75;;;-6.50;99.90;;;;;;6212895;23;20103;-85
2022/12/14 03:10:36;;;;;;;70.18;37.53;;;-7.40;99.90;;;;;;6212254;23;20052;-85
2022/12/14 03:13:17;;;;;;;64.75;36.35;;;-7.40;99.90;;;;;;6238133;23;20436;-85
2022/12/14 03:15:47;;;;;;;61.53;34.33;;;-7.40;99.90;;;;;;6213940;23;20077;-85
2022/12/14 03:18:18;;;;;;;65.25;37.83;;;-7.60;99.90;;;;;;6212739;23;20018;-84
2022/12/14 03:20:48;;;;;;;62.53;36.33;;;-7.60;99.90;;;;;;6212435;23;20020;-86
2022/12/14 03:23:19;;;;;;;63.65;38.58;;;-7.60;99.90;;;;;;6213157;23;20083;-84
2022/12/14 03:25:49;;;;;;;64.93;38.78;;;-7.80;99.90;;;;;;6213073;23;20062;-85
2022/12/14 03:28:23;;;;;;;66.65;38.10;;;-7.50;99.90;;;;;;6187073;23;20016;-84
2022/12/14 03:30:58;;;;;;;65.22;37.20;;;-7.60;99.90;;;;;;6212877;23;20012;-84
2022/12/14 03:33:28;;;;;;;68.40;37.83;;;-5.90;99.90;;;;;;6213553;23;20019;-85
2022/12/14 03:36:02;;;;;;;73.30;40.60;;;-7.70;99.90;;;;;;6212545;23;20094;-84
2022/12/14 03:38:34;;;;;;;74.07;41.10;;;-6.60;99.90;;;;;;6212183;23;20474;-85
2022/12/14 03:41:12;;;;;;;70.32;40.25;;;-7.60;99.90;;;;;;6212958;23;20054;-84
2022/12/14 03:43:44;;;;;;;70.95;38.80;;;-7.60;99.90;;;;;;6213520;23;20095;-85
2022/12/14 03:46:21;;;;;;;61.63;35.67;;;-7.60;99.90;;;;;;6212937;23;20016;-84
2022/12/14 03:48:55;;;;;;;64.07;36.53;;;-7.60;99.90;;;;;;6211225;23;20467;-84
2022/12/14 03:51:32;;;;;;;65.70;37.78;;;-7.00;99.90;;;;;;6213439;23;20056;-84
2022/12/14 03:54:10;;;;;;;66.97;38.65;;;-7.60;99.90;;;;;;6211765;23;20086;-85
2022/12/14 03:56:52;;;;;;;71.35;37.80;;;-7.70;99.90;;;;;;6237647;23;20466;-84
2022/12/14 03:59:33;;;;;;;63.77;37.40;;;-7.70;99.90;;;;;;6212995;23;20021;-84
2022/12/14 04:02:09;;;;;;;60.40;36.22;;;-7.70;99.90;;;;;;6212203;23;20018;-84
2022/12/14 04:04:43;;;;;;;68.10;37.47;;;-7.70;99.90;;;;;;6212074;23;20404;-85
2022/12/14 04:07:13;;;;;;;65.50;37.08;;;-7.60;99.90;;;;;;6213542;23;20020;-84
2022/12/14 04:09:55;;;;;;;74.30;40.78;;;-7.70;99.90;;;;;;6211083;23;20016;-85
2022/12/14 04:21:10;;;;;;;62.92;37.30;;;-7.70;99.90;;;;;;6212568;23;20020;-83
2022/12/14 04:26:34;;;;;;;69.43;39.05;;;-7.70;99.90;;;;;;6213157;23;20460;-84
2022/12/14 04:31:56;;;;;;;75.18;43.38;;;-7.80;99.90;;;;;;6211919;23;20024;-85
2022/12/14 04:34:25;;;;;;;67.43;39.65;;;-7.80;99.90;;;;;;6212720;23;20050;-84
2022/12/14 04:36:55;;;;;;;64.95;39.80;;;-7.80;99.90;;;;;;6187868;23;20063;-84
2022/12/14 04:39:29;;;;;;;71.80;43.00;;;-7.70;99.90;;;;;;6210820;23;20020;-84
2022/12/14 04:41:59;;;;;;;68.63;39.63;;;-7.80;99.90;;;;;;6187902;23;20061;-84
2022/12/14 04:44:33;;;;;;;80.32;44.17;;;-7.80;99.90;;;;;;6187856;23;20479;-85
2022/12/14 04:47:01;;;;;;;74.00;41.92;;;-7.80;99.90;;;;;;6212847;23;20016;-85
2022/12/14 04:49:39;;;;;;;78.43;42.10;;;-7.80;99.90;;;;;;6173319;23;20139;-84
2022/12/14 04:52:11;;;;;;;75.97;42.78;;;-7.80;99.90;;;;;;6181797;23;20016;-84
2022/12/14 04:54:44;;;;;;;77.05;42.65;;;-7.80;99.90;;;;;;6157060;23;20016;-84
2022/12/14 04:57:20;;;;;;;74.55;40.90;;;-7.80;99.90;;;;;;6182927;23;20329;-83
2022/12/14 04:59:47;;;;;;;73.13;41.33;;;-7.80;99.90;;;;;;6208962;23;20059;-85
2022/12/14 05:02:25;;;;;;;76.22;42.05;;;-7.90;99.90;;;;;;6182679;23;20091;-85
2022/12/14 05:05:00;;;;;;;67.43;39.83;;;-7.90;99.90;;;;;;6157895;23;20013;-84
2022/12/14 05:07:43;;;;;;;66.50;37.78;;;-7.90;99.90;;;;;;6182656;23;20441;-84
2022/12/14 05:10:14;;;;;;;71.88;41.58;;;-7.70;99.90;;;;;;6157045;23;20017;-84
2022/12/14 05:12:44;;;;;;;77.35;41.65;;;-8.00;99.90;;;;;;6181784;23;20345;-84
2022/12/14 05:15:22;;;;;;;68.45;38.70;;;-8.00;99.90;;;;;;6182701;23;20020;-84
2022/12/14 05:17:48;;;;;;;60.85;37.75;;;-8.00;99.90;;;;;;6183032;23;20024;-84
2022/12/14 05:20:18;;;;;;;74.70;40.20;;;-8.10;99.90;;;;;;6156605;23;20069;-85
2022/12/14 05:22:44;;;;;;;65.25;38.90;;;-8.00;99.90;;;;;;6180999;23;20516;-84
2022/12/14 05:25:10;;;;;;;62.65;37.53;;;-8.00;99.90;;;;;;6181838;23;20017;-84
2022/12/14 05:27:35;;;;;;;66.93;39.42;;;-8.10;99.90;;;;;;6156201;23;20099;-84
2022/12/14 05:30:02;;;;;;;72.38;41.17;;;-8.00;99.90;;;;;;6182065;23;20016;-85
2022/12/14 05:32:28;;;;;;;66.30;39.30;;;-8.10;99.90;;;;;;6182790;23;20480;-84
2022/12/14 05:34:54;;;;;;;76.38;40.78;;;-8.10;99.90;;;;;;6156537;23;20047;-85
2022/12/14 05:37:20;;;;;;;66.20;38.40;;;-8.20;99.90;;;;;;6157449;23;20013;-85
2022/12/14 05:39:45;;;;;;;74.55;40.58;;;-8.20;99.90;;;;;;6181608;23;20012;-85
2022/12/14 05:42:11;;;;;;;60.88;36.10;;;-8.20;99.90;;;;;;6181764;23;20027;-85
2022/12/14 05:44:37;;;;;;;58.25;36.70;;;-8.10;99.90;;;;;;6157545;23;20078;-85
2022/12/14 05:47:02;;;;;;;67.78;37.78;;;-8.20;99.90;;;;;;6182311;23;20012;-84
2022/12/14 05:49:28;;;;;;;73.50;38.30;;;-8.20;99.90;;;;;;6197379;23;20024;-86
2022/12/14 05:51:54;;;;;;;67.80;40.38;;;-8.20;99.90;;;;;;6212667;23;20052;-85
2022/12/14 05:54:19;;;;;;;74.32;39.10;;;-8.20;99.90;;;;;;6211465;23;20020;-85
2022/12/14 05:56:45;;;;;;;70.55;39.80;;;-8.30;99.90;;;;;;6211448;23;20020;-86
2022/12/14 05:59:14;;;;;;;73.18;38.30;;;-8.30;99.90;;;;;;6187429;23;20324;-85
2022/12/14 06:01:41;;;;;;;66.60;39.97;;;-8.30;99.90;;;;;;6212551;23;20012;-86
2022/12/14 06:04:06;;;;;;;67.53;38.00;;;-8.40;99.90;;;;;;6210737;23;20356;-86
2022/12/14 06:06:32;;;;;;;65.40;36.33;;;-7.40;99.90;;;;;;6213073;23;20091;-84
2022/12/14 06:08:58;;;;;;;68.38;37.33;;;-8.40;99.90;;;;;;6184711;23;20433;-86
2022/12/14 06:11:24;;;;;;;64.28;37.53;;;-8.00;99.90;;;;;;6213552;23;20020;-85
2022/12/14 06:13:50;;;;;;;66.30;38.50;;;-8.50;99.90;;;;;;6211946;23;20070;-85
2022/12/14 06:16:23;;;;;;;69.80;39.40;;;-8.50;99.90;;;;;;6187571;23;20468;-85
2022/12/14 06:18:50;;;;;;;71.40;41.88;;;-7.70;99.90;;;;;;6188585;23;20062;-86
2022/12/14 06:21:18;;;;;;;71.90;40.22;;;-7.50;99.90;;;;;;6215035;23;20920;-85
2022/12/14 06:23:44;;;;;;;74.85;39.55;;;-8.50;99.90;;;;;;6187383;23;20054;-85
2022/12/14 06:26:10;;;;;;;79.57;41.83;;;-8.50;99.90;;;;;;6215342;23;20429;-85
2022/12/14 06:28:37;;;;;;;76.45;40.75;;;-8.50;99.90;;;;;;6189506;23;20023;-85
2022/12/14 06:31:03;;;;;;;79.15;43.08;;;-8.50;99.90;;;;;;6188171;23;20107;-85
2022/12/14 06:33:31;;;;;;;77.05;41.10;;;-8.50;99.90;;;;;;6214295;23;20444;-85
2022/12/14 06:35:57;;;;;;;70.07;39.05;;;;;;;;;;6213821;23;20023;-85
2022/12/14 06:38:23;;;;;;;62.58;37.70;;;-8.50;99.90;;;;;;6213813;23;20012;-85
2022/12/14 06:40:49;;;;;;;68.55;37.85;;;-8.50;99.90;;;;;;6213371;23;20162;-86
2022/12/14 06:43:14;;;;;;;67.95;38.03;;;-6.70;99.90;;;;;;6214247;23;20496;-85
2022/12/14 06:45:40;;;;;;;67.32;38.88;;;-8.60;99.90;;;;;;6189001;23;20395;-85
2022/12/14 06:48:06;;;;;;;66.13;37.85;;;-8.60;99.90;;;;;;6188917;23;20027;-86
2022/12/14 06:50:31;;;;;;;69.80;38.55;;;-8.50;99.90;;;;;;6184395;23;20437;-85
2022/12/14 06:52:57;;;;;;;66.10;37.40;;;-8.50;99.90;;;;;;6207604;23;20013;-82
2022/12/14 06:55:26;;;;;;;63.40;38.15;;;-8.50;99.90;;;;;;6208312;23;20013;-83
2022/12/14 06:57:53;;;;;;;70.10;37.53;;;-8.50;99.90;;;;;;6209137;23;20095;-84
2022/12/14 07:00:20;;;;;;;63.53;35.53;;;-8.30;99.90;;;;;;6182923;23;20013;-83
2022/12/14 07:02:46;;;;;;;75.07;40.65;;;-6.90;99.90;;;;;;6209511;23;20036;-83
2022/12/14 07:05:12;;;;;;;72.07;39.88;;;-7.20;99.90;;;;;;6206773;23;20023;-84
2022/12/14 07:07:39;;;;;;;72.20;40.75;;;-7.40;99.90;;;;;;6209077;23;20016;-83
2022/12/14 07:10:05;;;;;;;69.97;39.85;;;-8.50;99.90;;;;;;6207129;23;20055;-84
2022/12/14 07:12:31;;;;;;;72.88;40.38;;;-8.50;99.90;;;;;;6183065;23;20784;-84
2022/12/14 07:14:57;;;;;;;75.85;41.75;;;-8.60;99.90;;;;;;6183515;23;20099;-84
2022/12/14 07:17:23;;;;;;;69.55;38.30;;;-7.50;99.90;;;;;;6183723;23;20027;-83
2022/12/14 07:19:49;;;;;;;62.88;36.60;;;-8.60;99.90;;;;;;6207540;23;20016;-84
2022/12/14 07:22:14;;;;;;;60.83;36.10;;;-8.60;99.90;;;;;;6208117;23;20013;-85
2022/12/14 07:24:40;;;;;;;65.88;38.97;;;-8.50;99.90;;;;;;6183446;23;20016;-84
2022/12/14 07:27:06;;;;;;;65.93;36.88;;;-8.60;99.90;;;;;;6207556;23;20455;-84
2022/12/14 07:29:33;;;;;;;67.90;39.15;;;-8.20;99.90;;;;;;6208588;23;20024;-84
2022/12/14 07:31:59;;;;;;;69.32;38.35;;;-8.70;99.90;;;;;;6183799;23;20019;-84
2022/12/14 07:34:25;;;;;;;68.13;38.63;;;-8.60;99.90;;;;;;6207284;23;20103;-84
2022/12/14 07:36:52;;;;;;;69.90;38.72;;;-6.70;99.90;;;;;;6208203;23;20376;-83
2022/12/14 07:39:19;;;;;;;62.60;36.97;;;-8.70;99.90;;;;;;6207895;23;20032;-83
2022/12/14 07:41:47;;;;;;;66.38;38.60;;;-8.70;99.90;;;;;;6182488;23;20016;-84
2022/12/14 07:44:13;;;;;;;66.93;37.92;;;-8.70;99.90;;;;;;6208878;23;20063;-84
2022/12/14 07:46:40;;;;;;;67.18;39.17;;;-7.20;99.90;;;;;;6183437;23;20017;-83
2022/12/14 07:49:06;;;;;;;63.53;35.88;;;-8.80;99.90;;;;;;6211715;23;20024;-83
2022/12/14 07:51:35;;;;;;;66.18;36.75;;;-8.00;99.90;;;;;;6213056;23;20089;-83
2022/12/14 07:54:01;;;;;;;67.63;39.30;;;-8.80;99.90;;;;;;6212157;23;20074;-85
2022/12/14 07:56:30;;;;;;;64.25;36.50;;;-8.90;99.90;;;;;;6187503;23;20095;-86
2022/12/14 07:58:58;;;;;;;65.97;37.05;;;-8.80;99.90;;;;;;6213532;23;20047;-85
2022/12/14 08:01:27;;;;;;;65.65;36.83;;;-7.80;99.90;;;;;;6213753;23;20333;-86
2022/12/14 08:03:56;;;;;;;69.03;37.75;;;-8.70;99.90;;;;;;6213215;23;20091;-84
2022/12/14 08:06:24;;;;;;;66.78;37.05;;;-7.40;99.90;;;;;;6187788;23;20020;-83
2022/12/14 08:08:51;;;;;;;64.82;36.60;;;-8.80;99.90;;;;;;6212773;23;20452;-82
2022/12/14 08:11:17;;;;;;;76.68;39.50;;;-8.70;99.90;;;;;;6212716;23;20024;-84
2022/12/14 08:13:43;;;;;;;74.53;40.05;;;-8.70;99.90;;;;;;6212873;23;20068;-83
2022/12/14 08:16:12;;;;;;;66.78;35.97;;;-8.70;99.90;;;;;;6212286;23;20028;-84
2022/12/14 08:18:38;;;;;;;70.82;39.85;;;-8.60;99.90;;;;;;6213677;23;20012;-85
2022/12/14 08:21:06;;;;;;;72.00;39.17;;;-7.60;99.90;;;;;;6215796;23;20034;-84
2022/12/14 08:23:32;;;;;;;64.38;34.90;;;-8.70;99.90;;;;;;6211744;23;20012;-84
2022/12/14 08:25:59;;;;;;;66.22;37.05;;;-7.20;99.90;;;;;;6211505;23;20051;-83
2022/12/14 08:28:27;;;;;;;61.63;35.20;;;-8.60;99.90;;;;;;6212213;23;20097;-83
2022/12/14 08:30:53;;;;;;;68.65;36.13;;;-8.60;99.90;;;;;;6187687;23;20042;-84
2022/12/14 08:33:20;;;;;;;73.57;39.80;;;-8.50;99.90;;;;;;6212669;23;20019;-83
2022/12/14 08:35:45;;;;;;;76.80;39.55;;;-8.50;99.90;;;;;;6187181;23;20020;-84
2022/12/14 08:38:11;;;;;;;67.28;39.17;;;-8.40;99.90;;;;;;6213339;23;20328;-82
2022/12/14 08:40:38;;;;;;;63.00;35.65;;;-8.40;99.90;;;;;;6211069;23;20449;-83
2022/12/14 08:43:05;;;;;;;68.63;37.97;;;-8.50;99.90;;;;;;6211633;23;20348;-83
2022/12/14 08:45:32;;;;;;;62.10;36.13;;;-8.40;99.90;;;;;;6188184;23;20123;-82
2022/12/14 08:47:58;;;;;;;64.40;36.58;;;-8.10;99.90;;;;;;6211705;23;20111;-83
2022/12/14 08:50:25;;;;;;;60.47;35.17;;;-7.30;99.90;;;;;;6213808;23;20478;-83
2022/12/14 08:52:51;;;;;;;71.10;40.78;;;-8.20;99.90;;;;;;6210932;23;20016;-83
2022/12/14 08:55:17;;;;;;;65.80;37.65;;;-6.50;99.90;;;;;;6211071;23;20072;-83
2022/12/14 08:57:43;;;;;;;68.00;37.83;;;-8.20;99.90;;;;;;6185951;23;20016;-83
2022/12/14 09:00:09;;;;;;;71.00;40.95;;;-6.70;99.90;;;;;;6186827;23;20016;-83
2022/12/14 09:02:35;;;;;;;69.70;39.55;;;-8.10;99.90;;;;;;6212562;23;20344;-83
2022/12/14 09:05:01;;;;;;;70.25;38.00;;;-7.40;99.90;;;;;;6210522;23;20020;-83
2022/12/14 09:07:28;;;;;;;68.88;39.20;;;-7.20;99.90;;;;;;6187279;23;20020;-83
2022/12/14 09:09:53;;;;;;;75.70;40.88;;;-7.70;99.90;;;;;;6210475;23;20016;-82
2022/12/14 09:12:19;;;;;;;77.60;42.45;;;-6.30;99.90;;;;;;6211339;23;20448;-83
2022/12/14 09:14:48;;;;;;;83.72;42.30;;;-6.30;99.90;;;;;;6187111;23;20047;-83
2022/12/14 09:17:14;;;;;;;70.82;39.63;;;-8.00;99.90;;;;;;6187077;23;20360;-83
2022/12/14 09:19:40;;;;;;;74.63;41.70;;;-7.70;99.90;;;;;;6186065;23;20334;-83
2022/12/14 09:22:06;;;;;;;80.03;43.15;;;-6.90;99.90;;;;;;6211346;23;20019;-83
2022/12/14 09:24:32;;;;;;;84.93;43.75;;;-7.60;99.90;;;;;;6211360;23;20020;-83
2022/12/14 09:26:59;;;;;;;76.20;40.20;;;-7.60;99.90;;;;;;6185067;23;20122;-83
2022/12/14 09:29:25;;;;;;;74.53;40.33;;;-5.80;99.90;;;;;;6212538;23;20550;-83
2022/12/14 09:31:51;;;;;;;73.97;41.58;;;-7.40;99.90;;;;;;6212028;23;20023;-83
2022/12/14 09:34:18;;;;;;;73.68;40.95;;;-6.50;99.90;;;;;;6185533;23;20020;-83
2022/12/14 09:36:44;;;;;;;81.32;43.05;;;-7.20;99.90;;;;;;6187088;23;20081;-83
2022/12/14 09:39:13;;;;;;;77.63;42.45;;;-7.10;99.90;;;;;;6185258;23;20067;-83
2022/12/14 09:41:54;;;;;;;75.15;39.58;;;-5.70;99.90;;;;;;6186279;23;20020;-83
2022/12/14 09:44:38;;;;;;;79.55;39.75;;;-6.90;99.90;;;;;;6211676;23;20408;-83
2022/12/14 09:47:12;;;;;;;70.47;37.40;;;-6.80;99.90;;;;;;6210601;23;20016;-83
2022/12/14 09:49:41;;;;;;;67.50;35.70;;;-6.70;99.90;;;;;;6186885;23;20016;-83
2022/12/14 09:52:14;;;;;;;70.95;36.50;;;-6.60;99.90;;;;;;6212775;23;20353;-83
2022/12/14 09:54:43;;;;;;;68.82;36.33;;;-6.50;99.90;;;;;;6212455;23;20452;-83
2022/12/14 09:57:18;;;;;;;63.72;33.67;;;-6.50;99.90;;;;;;6213291;23;20012;-84
2022/12/14 09:59:43;;;;;;;57.60;32.05;;;-6.40;99.90;;;;;;6213998;23;20016;-84
2022/12/14 10:02:34;;;;;;;68.35;34.15;;;-6.30;99.90;;;;;;6187265;23;20019;-84
2022/12/14 10:05:07;;;;;;;62.88;32.67;;;-6.10;99.90;;;;;;6213327;23;20013;-84
2022/12/14 10:07:43;;;;;;;66.93;34.55;;;-6.00;99.90;;;;;;6213645;23;20020;-84
2022/12/14 10:10:22;;;;;;;63.80;34.20;;;-5.90;99.90;;;;;;6211705;23;20016;-83
2022/12/14 10:13:03;;;;;;;66.63;35.92;;;-5.80;99.90;;;;;;6187948;23;20027;-84
2022/12/14 10:15:49;;;;;;;61.88;32.45;;;-5.70;99.90;;;;;;6212570;23;20015;-84
2022/12/14 10:18:21;;;;;;;68.63;33.80;;;-5.60;99.90;;;;;;6213252;23;20076;-84
2022/12/14 10:21:15;;;;;;;63.25;34.53;;;-5.60;99.90;;;;;;6188966;23;20026;-84
2022/12/14 10:23:50;;;;;;;66.38;32.47;;;-4.50;99.90;;;;;;6211382;23;20385;-84
2022/12/14 10:26:18;;;;;;;62.40;30.90;;;-4.80;99.90;;;;;;6188736;23;20262;-84
2022/12/14 10:28:51;;;;;;;58.00;28.88;;;-3.50;99.90;;;;;;6212661;23;20016;-85
2022/12/14 10:31:30;;;;;;;57.20;29.10;;;-5.10;99.90;;;;;;6212969;23;20023;-84
2022/12/14 10:34:08;;;;;;;56.00;28.58;;;-4.50;99.90;;;;;;6210939;23;20016;-84
2022/12/14 10:36:51;;;;;;;52.50;27.85;;;-3.60;99.90;;;;;;6212828;23;20332;-84
2022/12/14 10:39:26;;;;;;;48.33;25.55;;;-3.90;99.90;;;;;;6212213;23;20289;-84
2022/12/14 10:42:01;;;;;;;54.42;25.23;;;-3.50;99.90;;;;;;6213562;23;20437;-84
2022/12/14 10:44:38;;;;;;;53.60;26.55;;;-4.70;99.90;;;;;;6211790;23;20091;-85
2022/12/14 10:47:15;;;;;;;46.75;24.08;;;-4.50;99.90;;;;;;6187755;23;20062;-84
2022/12/14 10:49:48;;;;;;;46.00;23.73;;;-3.90;99.90;;;;;;6213114;23;20016;-85
2022/12/14 10:52:19;;;;;;;44.72;23.38;;;-4.40;99.90;;;;;;6212227;23;20031;-84
2022/12/14 10:54:51;;;;;;;44.70;23.27;;;-3.90;99.90;;;;;;6211569;23;20470;-85
2022/12/14 10:57:19;;;;;;;43.03;21.80;;;-4.30;99.90;;;;;;6212608;23;20016;-85
2022/12/14 10:59:46;;;;;;;43.00;22.83;;;-4.30;99.90;;;;;;6212561;23;20045;-85
2022/12/14 11:02:17;;;;;;;47.05;24.08;;;-4.10;99.90;;;;;;6187945;23;20020;-85
2022/12/14 11:04:48;;;;;;;49.05;23.48;;;-4.10;99.90;;;;;;6188129;23;20012;-87
2022/12/14 11:07:16;;;;;;;39.67;23.35;;;-2.90;99.90;;;;;;6189400;23;20260;-88
2022/12/14 11:09:42;;;;;;;52.50;24.60;;;-3.90;99.90;;;;;;6213456;23;20070;-85
2022/12/14 11:12:12;;;;;;;45.17;22.92;;;-2.80;99.90;;;;;;6184870;23;20477;-87
2022/12/14 11:14:50;;;;;;;43.85;23.30;;;-2.70;99.90;;;;;;6186012;23;20020;-89
2022/12/14 11:17:30;;;;;;;45.65;22.30;;;-3.80;99.90;;;;;;6186230;23;20012;-88
2022/12/14 11:20:16;;;;;;;42.03;23.00;;;-3.90;99.90;;;;;;6186792;23;20455;-87
2022/12/14 11:22:49;;;;;;;41.80;20.80;;;-3.80;99.90;;;;;;6212922;23;20391;-88
2022/12/14 11:25:32;;;;;;;42.63;23.60;;;-2.50;99.90;;;;;;6190075;23;20031;-91
2022/12/14 11:28:01;;;;;;;40.67;22.80;;;-3.80;99.90;;;;;;6190979;23;20039;-92
2022/12/14 11:30:28;;;;;;;46.45;22.52;;;-3.50;99.90;;;;;;6188471;23;20016;-88
2022/12/14 11:32:54;;;;;;;39.40;20.15;;;-2.80;99.90;;;;;;6189307;23;20023;-89
2022/12/14 11:35:20;;;;;;;36.53;19.85;;;-3.80;99.90;;;;;;6188968;23;20020;-88
2022/12/14 11:37:49;;;;;;;38.72;20.75;;;-3.90;99.90;;;;;;6189078;23;20016;-89
2022/12/14 11:40:24;;;;;;;35.58;19.20;;;-3.70;99.90;;;;;;6189711;23;20024;-90
2022/12/14 11:42:53;;;;;;;34.72;20.00;;;-2.60;99.90;;;;;;6214150;23;20012;-87
2022/12/14 11:45:25;;;;;;;39.50;20.95;;;-3.00;99.90;;;;;;6185419;23;20095;-87
2022/12/14 11:48:17;;;;;;;40.33;20.80;;;-2.90;99.90;;;;;;6212691;23;20093;-89
2022/12/14 11:50:48;;;;;;;44.15;21.67;;;-3.60;99.90;;;;;;6216174;23;20020;-90
2022/12/14 11:53:16;;;;;;;39.58;20.08;;;-2.70;99.90;;;;;;6190537;23;20016;-89
2022/12/14 11:55:48;;;;;;;39.95;21.05;;;-3.50;99.90;;;;;;6189722;23;20387;-90
2022/12/14 11:58:19;;;;;;;39.17;20.65;;;-3.40;99.90;;;;;;6188849;23;20439;-89
2022/12/14 12:00:51;;;;;;;42.10;22.02;;;-3.30;99.90;;;;;;6189232;23;20452;-88
2022/12/14 12:03:24;;;;;;;34.08;19.27;;;-2.70;99.90;;;;;;6187478;23;20054;-87
2022/12/14 12:05:52;;;;;;;36.60;20.15;;;-3.20;99.90;;;;;;6213557;23;20012;-88
2022/12/14 12:08:23;;;;;;;36.25;20.55;;;-3.10;99.90;;;;;;6188728;23;20020;-89
2022/12/14 12:10:51;;;;;;;48.10;20.85;;;-3.10;99.90;;;;;;6189243;23;20016;-88
2022/12/14 12:13:24;;;;;;;37.50;20.60;;;-2.00;99.90;;;;;;6188363;23;20458;-88
2022/12/14 12:15:54;;;;;;;37.45;20.05;;;-3.10;99.90;;;;;;6186199;23;20012;-88
2022/12/14 12:18:22;;;;;;;38.78;20.92;;;-2.90;99.90;;;;;;6187723;23;20078;-87
2022/12/14 12:20:55;;;;;;;35.78;19.73;;;-3.00;99.90;;;;;;6187440;23;20020;-87
2022/12/14 12:23:30;;;;;;;37.33;19.05;;;-2.90;99.90;;;;;;6186462;23;20024;-88
2022/12/14 12:25:58;;;;;;;36.13;19.10;;;-1.80;99.90;;;;;;6210646;23;20099;-85
2022/12/14 12:28:29;;;;;;;33.28;18.98;;;-2.90;99.90;;;;;;6211011;23;20216;-88
2022/12/14 12:31:03;;;;;;;29.48;16.60;;;-2.50;99.90;;;;;;6187998;23;20375;-85
2022/12/14 12:33:37;;;;;;;31.85;17.55;;;-2.00;99.90;;;;;;6187806;23;20009;-86
2022/12/14 12:36:04;;;;;;;30.58;17.25;;;-2.70;99.90;;;;;;6186757;23;20016;-87
2022/12/14 12:39:02;;;;;;;28.55;17.52;;;-2.70;99.90;;;;;;6187538;23;20433;-87
2022/12/14 12:41:40;;;;;;;29.48;16.23;;;-2.60;99.90;;;;;;6187141;23;20484;-86
2022/12/14 12:44:39;;;;;;;27.55;16.00;;;-2.60;99.90;;;;;;6187112;23;20023;-87
2022/12/14 12:47:13;;;;;;;24.48;14.15;;;-2.60;99.90;;;;;;6186427;23;20043;-87
2022/12/14 12:49:39;;;;;;;27.77;14.73;;;-2.50;99.90;;;;;;6211717;23;20016;-85
2022/12/14 12:52:21;;;;;;;30.92;16.15;;;-2.60;99.90;;;;;;6186115;23;20150;-86
2022/12/14 12:54:56;;;;;;;28.10;15.30;;;-2.50;99.90;;;;;;6210702;23;20024;-84
2022/12/14 12:57:34;;;;;;;27.13;14.45;;;-2.50;99.90;;;;;;6212299;23;20077;-87
2022/12/14 13:00:00;;;;;;;29.63;15.25;;;-2.20;99.90;;;;;;6211590;23;20020;-84